Time;durP1;ratioP1;P1;durP2;ratioP2;P2;SDS_P1;SDS_P2;PMS_P1;PMS_P2;Temp;Humidity;BMP_temperature;BMP_pressure;BME280_temperature;BME280_humidity;BME280_pressure;Samples;Min_cycle;Max_cycle;Signal;HPM_P1;HPM_P2
2022/12/02 00:00:49;;;;;;;61.10;28.67;;;;;;;;;;5041664;28;20029;-75
2022/12/02 00:03:17;;;;;;;65.83;27.53;;;;;;;;;;5056915;28;20021;-74
2022/12/02 00:05:43;;;;;;;74.17;30.07;;;;;;;;;;5057926;28;20044;-75
2022/12/02 00:08:22;;;;;;;57.07;26.17;;;;;;;;;;5058530;28;20040;-75
2022/12/02 00:10:50;;;;;;;65.73;28.00;;;;;;;;;;5059635;28;20107;-76
2022/12/02 00:13:19;;;;;;;63.80;27.30;;;;;;;;;;5044391;28;20055;-76
2022/12/02 00:15:47;;;;;;;70.93;28.40;;;;;;;;;;5042398;28;20480;-76
2022/12/02 00:18:14;;;;;;;69.77;25.47;;;;;;;;;;5058284;28;21702;-76
2022/12/02 00:20:41;;;;;;;64.77;26.00;;;;;;;;;;5054687;28;20059;-75
2022/12/02 00:23:12;;;;;;;56.00;23.90;;;;;;;;;;5046958;28;20092;-75
2022/12/02 00:25:38;;;;;;;68.80;28.93;;;;;;;;;;5058487;28;20937;-74
2022/12/02 00:28:04;;;;;;;64.87;28.80;;;;;;;;;;5043176;28;20120;-76
2022/12/02 00:30:30;;;;;;;70.13;27.83;;;;;;;;;;5058894;28;20021;-76
2022/12/02 00:32:56;;;;;;;55.30;25.33;;;;;;;;;;5045782;28;20040;-75
2022/12/02 00:35:23;;;;;;;61.90;27.57;;;;;;;;;;5043505;28;20041;-75
2022/12/02 00:37:49;;;;;;;65.47;28.40;;;;;;;;;;5042304;28;20030;-76
2022/12/02 00:40:15;;;;;;;57.57;26.00;;;;;;;;;;5044420;28;20025;-76
2022/12/02 00:42:41;;;;;;;58.93;26.07;;;;;;;;;;5044128;28;20539;-75
2022/12/02 00:47:56;;;;;;;55.30;25.50;;;;;;;;;;5041701;28;20380;-75
2022/12/02 00:50:22;;;;;;;64.37;25.83;;;;;;;;;;5048640;28;20017;-75
2022/12/02 00:52:48;;;;;;;54.40;23.23;;;;;;;;;;5042847;28;20415;-75
2022/12/02 00:55:14;;;;;;;54.77;23.27;;;;;;;;;;5057409;28;20504;-76
2022/12/02 00:57:40;;;;;;;57.17;26.07;;;;;;;;;;5043429;28;20044;-75
2022/12/02 01:00:07;;;;;;;56.13;24.60;;;;;;;;;;5044195;28;20033;-76
2022/12/02 01:02:33;;;;;;;53.87;26.23;;;;;;;;;;5042819;28;20033;-76
2022/12/02 01:05:01;;;;;;;49.30;24.00;;;;;;;;;;5056467;28;20083;-75
2022/12/02 01:07:27;;;;;;;44.37;21.10;;;;;;;;;;5059225;28;20034;-75
2022/12/02 01:09:53;;;;;;;49.60;23.47;;;;;;;;;;5045234;28;20500;-76
2022/12/02 01:12:20;;;;;;;40.33;20.50;;;;;;;;;;5043936;28;20033;-76
2022/12/02 01:14:46;;;;;;;44.13;20.53;;;;;;;;;;5045300;28;20036;-76
2022/12/02 01:17:12;;;;;;;43.93;20.10;;;;;;;;;;5040012;28;20029;-75
2022/12/02 01:19:38;;;;;;;41.43;20.43;;;;;;;;;;5053471;28;20044;-76
2022/12/02 01:22:04;;;;;;;43.70;20.63;;;;;;;;;;5054738;28;20446;-76
2022/12/02 01:24:30;;;;;;;37.50;18.67;;;;;;;;;;5058919;28;20349;-76
2022/12/02 01:26:56;;;;;;;37.00;19.07;;;;;;;;;;5053563;28;20094;-75
2022/12/02 01:29:22;;;;;;;41.27;19.63;;;;;;;;;;5054840;28;20025;-76
2022/12/02 01:31:48;;;;;;;40.07;18.83;;;;;;;;;;5054407;28;20031;-76
2022/12/02 01:34:14;;;;;;;36.40;18.77;;;;;;;;;;5053190;28;20111;-76
2022/12/02 01:36:40;;;;;;;33.00;16.67;;;;;;;;;;5062835;28;20477;-76
2022/12/02 01:39:08;;;;;;;34.73;17.33;;;;;;;;;;5053502;28;20060;-76
2022/12/02 01:41:39;;;;;;;35.60;16.90;;;;;;;;;;5058341;28;20025;-76
2022/12/02 01:44:05;;;;;;;34.53;17.70;;;;;;;;;;5072974;28;20028;-76
2022/12/02 01:46:31;;;;;;;35.67;17.23;;;;;;;;;;5053676;28;20437;-76
2022/12/02 01:48:57;;;;;;;32.20;17.07;;;;;;;;;;5052922;28;20036;-76
2022/12/02 01:51:23;;;;;;;34.57;18.37;;;;;;;;;;5067878;28;20032;-76
2022/12/02 01:53:49;;;;;;;34.77;17.23;;;;;;;;;;5055433;28;20101;-76
2022/12/02 01:56:17;;;;;;;35.10;16.53;;;;;;;;;;5067632;28;20032;-75
2022/12/02 01:58:43;;;;;;;34.20;17.10;;;;;;;;;;5055151;28;20017;-76
2022/12/02 02:01:25;;;;;;;31.60;16.23;;;;;;;;;;5054090;28;20025;-76
2022/12/02 02:03:51;;;;;;;37.20;17.63;;;;;;;;;;5056278;28;20028;-76
2022/12/02 02:06:17;;;;;;;30.30;16.50;;;;;;;;;;5066824;28;20131;-75
2022/12/02 02:08:43;;;;;;;35.37;17.43;;;;;;;;;;5054590;28;20110;-76
2022/12/02 02:11:09;;;;;;;34.73;17.43;;;;;;;;;;5053559;28;20093;-76
2022/12/02 02:13:37;;;;;;;35.27;18.37;;;;;;;;;;5068286;28;20044;-76
2022/12/02 02:16:04;;;;;;;34.17;19.40;;;;;;;;;;5053051;28;20381;-76
2022/12/02 02:18:30;;;;;;;32.77;17.53;;;;;;;;;;5053307;28;20053;-76
2022/12/02 02:20:59;;;;;;;34.67;17.40;;;;;;;;;;5053110;28;20017;-76
2022/12/02 02:23:25;;;;;;;35.07;16.87;;;;;;;;;;5050020;28;20024;-76
2022/12/02 02:25:56;;;;;;;36.47;18.13;;;;;;;;;;5069034;28;20032;-76
2022/12/02 02:28:24;;;;;;;36.30;18.00;;;;;;;;;;5056650;28;20033;-76
2022/12/02 02:30:51;;;;;;;32.77;17.43;;;;;;;;;;5056989;28;20033;-76
2022/12/02 02:33:18;;;;;;;33.47;18.03;;;;;;;;;;5056866;28;20033;-76
2022/12/02 02:35:45;;;;;;;35.83;18.27;;;;;;;;;;5059601;28;20029;-76
2022/12/02 02:38:14;;;;;;;34.80;17.77;;;;;;;;;;5067160;28;20408;-76
2022/12/02 02:40:41;;;;;;;33.13;18.63;;;;;;;;;;5053361;28;20025;-76
2022/12/02 02:43:07;;;;;;;30.63;17.00;;;;;;;;;;5056585;28;20046;-76
2022/12/02 02:45:35;;;;;;;36.60;18.13;;;;;;;;;;5056924;28;20075;-76
2022/12/02 02:48:02;;;;;;;36.50;18.40;;;;;;;;;;5055918;28;20021;-76
2022/12/02 02:50:28;;;;;;;33.50;18.10;;;;;;;;;;5056425;28;20024;-76
2022/12/02 02:52:55;;;;;;;33.77;18.43;;;;;;;;;;5051446;28;20021;-76
2022/12/02 02:55:22;;;;;;;35.37;18.30;;;;;;;;;;5066415;28;20114;-76
2022/12/02 02:57:48;;;;;;;32.00;16.77;;;;;;;;;;5040420;28;20036;-76
2022/12/02 03:00:15;;;;;;;34.23;18.33;;;;;;;;;;5064973;28;20038;-75
2022/12/02 03:02:41;;;;;;;37.37;19.00;;;;;;;;;;5061278;28;20036;-76
2022/12/02 03:05:08;;;;;;;37.57;18.30;;;;;;;;;;5070014;28;20188;-76
2022/12/02 03:07:34;;;;;;;36.33;18.03;;;;;;;;;;5056236;28;20453;-76
2022/12/02 03:10:00;;;;;;;42.03;19.80;;;;;;;;;;5067461;28;20120;-76
2022/12/02 03:12:27;;;;;;;38.50;20.03;;;;;;;;;;5036838;28;20108;-76
2022/12/02 03:14:53;;;;;;;38.47;20.13;;;;;;;;;;5063005;28;20033;-76
2022/12/02 03:17:19;;;;;;;43.97;20.50;;;;;;;;;;5055805;28;20033;-75
2022/12/02 03:19:48;;;;;;;40.87;20.63;;;;;;;;;;5052906;28;20079;-76
2022/12/02 03:22:14;;;;;;;45.80;21.13;;;;;;;;;;5069164;28;20022;-76
2022/12/02 03:24:40;;;;;;;45.97;22.13;;;;;;;;;;5055570;28;20071;-76
2022/12/02 03:27:07;;;;;;;52.40;22.63;;;;;;;;;;5069811;28;20036;-75
2022/12/02 03:29:33;;;;;;;44.37;21.60;;;;;;;;;;5055500;28;20032;-76
2022/12/02 03:32:00;;;;;;;48.43;22.83;;;;;;;;;;5055836;28;20060;-76
2022/12/02 03:34:27;;;;;;;51.40;22.97;;;;;;;;;;5056481;28;20031;-76
2022/12/02 03:36:53;;;;;;;51.20;25.00;;;;;;;;;;5055059;28;20025;-75
2022/12/02 03:39:20;;;;;;;54.37;24.10;;;;;;;;;;5063135;28;20032;-76
2022/12/02 03:41:47;;;;;;;53.73;25.20;;;;;;;;;;5061722;28;20029;-76
2022/12/02 03:44:14;;;;;;;51.40;23.97;;;;;;;;;;5056159;28;20133;-76
2022/12/02 03:46:40;;;;;;;47.27;24.10;;;;;;;;;;5055634;28;20033;-76
2022/12/02 03:49:06;;;;;;;52.17;25.13;;;;;;;;;;5055086;28;20468;-76
2022/12/02 03:51:32;;;;;;;51.03;23.90;;;;;;;;;;5055330;28;20477;-76
2022/12/02 03:54:00;;;;;;;49.13;24.97;;;;;;;;;;5056267;28;20060;-76
2022/12/02 03:56:28;;;;;;;48.90;23.10;;;;;;;;;;5060520;28;20103;-76
2022/12/02 03:58:54;;;;;;;45.23;22.07;;;;;;;;;;5060333;28;20478;-76
2022/12/02 04:01:21;;;;;;;48.27;23.73;;;;;;;;;;5055263;28;20358;-76
2022/12/02 04:03:47;;;;;;;54.40;25.57;;;;;;;;;;5055594;28;20100;-76
2022/12/02 04:06:14;;;;;;;49.50;23.70;;;;;;;;;;5069977;28;20025;-76
2022/12/02 04:08:40;;;;;;;51.03;25.20;;;;;;;;;;5060730;28;20021;-76
2022/12/02 04:11:06;;;;;;;56.47;25.53;;;;;;;;;;5055198;28;20082;-76
2022/12/02 04:13:35;;;;;;;53.70;24.40;;;;;;;;;;5056149;28;20037;-76
2022/12/02 04:16:01;;;;;;;52.43;23.83;;;;;;;;;;5055148;28;20025;-76
2022/12/02 04:18:27;;;;;;;49.93;23.90;;;;;;;;;;5068749;28;20140;-76
2022/12/02 04:20:53;;;;;;;56.40;25.77;;;;;;;;;;5058308;28;20418;-77
2022/12/02 04:23:21;;;;;;;47.07;22.83;;;;;;;;;;5042006;28;20025;-75
2022/12/02 04:25:47;;;;;;;51.83;24.20;;;;;;;;;;5056604;28;20033;-76
2022/12/02 04:28:16;;;;;;;54.50;24.93;;;;;;;;;;5063029;28;20033;-76
2022/12/02 04:30:42;;;;;;;58.33;25.43;;;;;;;;;;5058045;28;20056;-76
2022/12/02 04:33:08;;;;;;;53.03;23.67;;;;;;;;;;5067945;28;20032;-76
2022/12/02 04:35:34;;;;;;;53.73;24.00;;;;;;;;;;5055494;28;20044;-75
2022/12/02 04:38:00;;;;;;;54.47;25.73;;;;;;;;;;5054393;28;20029;-76
2022/12/02 04:40:26;;;;;;;52.87;24.93;;;;;;;;;;5063319;28;20036;-76
2022/12/02 04:42:55;;;;;;;53.77;26.67;;;;;;;;;;5058832;28;20036;-75
2022/12/02 04:45:21;;;;;;;56.17;24.93;;;;;;;;;;5055341;28;20025;-76
2022/12/02 04:47:49;;;;;;;60.17;26.43;;;;;;;;;;5055242;28;20033;-76
2022/12/02 04:50:15;;;;;;;58.53;26.03;;;;;;;;;;5054515;28;20029;-76
2022/12/02 04:52:41;;;;;;;55.33;24.47;;;;;;;;;;5055778;28;20350;-75
2022/12/02 04:55:08;;;;;;;58.10;25.50;;;;;;;;;;5064682;28;20032;-75
2022/12/02 04:57:34;;;;;;;55.27;23.70;;;;;;;;;;5053104;28;20036;-75
2022/12/02 05:00:00;;;;;;;55.47;25.37;;;;;;;;;;5054113;28;20025;-76
2022/12/02 05:02:26;;;;;;;58.53;24.83;;;;;;;;;;5060064;28;20032;-76
2022/12/02 05:04:52;;;;;;;55.13;23.90;;;;;;;;;;5053955;28;20454;-76
2022/12/02 05:07:20;;;;;;;51.43;23.47;;;;;;;;;;5054460;28;20345;-75
2022/12/02 05:09:46;;;;;;;52.20;25.37;;;;;;;;;;5052024;28;20049;-75
2022/12/02 05:12:12;;;;;;;53.13;24.90;;;;;;;;;;5055033;28;20480;-76
2022/12/02 05:14:38;;;;;;;57.30;25.13;;;;;;;;;;5051326;28;20032;-76
2022/12/02 05:17:04;;;;;;;55.40;25.90;;;;;;;;;;5046685;28;20506;-76
2022/12/02 05:19:30;;;;;;;60.27;25.60;;;;;;;;;;5044937;28;20048;-76
2022/12/02 05:21:56;;;;;;;57.47;25.50;;;;;;;;;;5059326;28;20851;-75
2022/12/02 05:24:22;;;;;;;57.60;25.87;;;;;;;;;;5062936;28;20033;-76
2022/12/02 05:26:48;;;;;;;56.10;25.23;;;;;;;;;;5044750;28;20147;-75
2022/12/02 05:29:14;;;;;;;62.63;26.80;;;;;;;;;;5044934;28;20040;-75
2022/12/02 05:31:41;;;;;;;53.37;24.67;;;;;;;;;;5045928;28;20033;-76
2022/12/02 05:34:07;;;;;;;59.70;25.90;;;;;;;;;;5047434;28;20036;-75
2022/12/02 05:36:33;;;;;;;60.10;25.50;;;;;;;;;;5049649;28;20034;-75
2022/12/02 05:38:59;;;;;;;61.90;26.93;;;;;;;;;;5045742;28;20441;-76
2022/12/02 05:41:25;;;;;;;69.53;27.63;;;;;;;;;;5060301;28;20020;-75
2022/12/02 05:43:54;;;;;;;57.93;25.67;;;;;;;;;;5044075;28;20021;-75
2022/12/02 05:46:20;;;;;;;57.83;25.00;;;;;;;;;;5061890;28;20032;-75
2022/12/02 05:48:47;;;;;;;62.43;28.90;;;;;;;;;;5058580;28;20094;-74
2022/12/02 05:51:15;;;;;;;63.23;27.40;;;;;;;;;;5044936;28;20025;-75
2022/12/02 05:53:42;;;;;;;60.67;25.77;;;;;;;;;;5046468;28;20033;-76
2022/12/02 05:56:13;;;;;;;62.20;27.00;;;;;;;;;;5045187;28;20036;-76
2022/12/02 05:58:39;;;;;;;70.13;29.00;;;;;;;;;;5044025;28;20159;-75
2022/12/02 06:01:14;;;;;;;64.93;27.03;;;;;;;;;;5063186;28;20365;-77
2022/12/02 06:03:40;;;;;;;61.87;27.00;;;;;;;;;;5053239;28;20037;-75
2022/12/02 06:06:11;;;;;;;64.63;27.20;;;;;;;;;;5062834;28;20512;-76
2022/12/02 06:08:37;;;;;;;69.13;27.13;;;;;;;;;;5049663;28;20041;-76
2022/12/02 06:11:11;;;;;;;64.67;26.60;;;;;;;;;;5048210;28;20283;-76
2022/12/02 06:13:38;;;;;;;66.90;28.23;;;;;;;;;;5047330;28;20036;-77
2022/12/02 06:16:07;;;;;;;67.90;27.80;;;;;;;;;;5064294;28;20091;-76
2022/12/02 06:18:34;;;;;;;74.00;30.63;;;;;;;;;;5065666;28;20044;-76
2022/12/02 06:21:02;;;;;;;67.43;27.50;;;;;;;;;;5063613;28;20112;-76
2022/12/02 06:23:30;;;;;;;62.70;26.67;;;;;;;;;;5065365;28;20087;-78
2022/12/02 06:25:57;;;;;;;65.03;27.37;;;;;;;;;;5069026;28;20032;-77
2022/12/02 06:28:31;;;;;;;68.97;28.53;;;;;;;;;;5050781;28;20032;-76
2022/12/02 06:30:59;;;;;;;66.17;26.87;;;;;;;;;;5050588;28;20037;-77
2022/12/02 06:33:32;;;;;;;67.53;26.80;;;;;;;;;;5051341;28;20061;-77
2022/12/02 06:35:59;;;;;;;68.87;27.97;;;;;;;;;;5050519;28;20031;-77
2022/12/02 06:38:29;;;;;;;71.37;27.60;;;;;;;;;;5066379;28;20033;-76
2022/12/02 06:40:55;;;;;;;67.00;29.00;;;;;;;;;;5067470;28;20025;-76
2022/12/02 06:43:26;;;;;;;69.60;28.87;;;;;;;;;;5049409;28;20029;-75
2022/12/02 06:45:52;;;;;;;66.27;27.80;;;;;;;;;;5053172;28;20029;-76
2022/12/02 06:48:39;;;;;;;78.17;29.53;;;;;;;;;;5052410;28;20104;-76
2022/12/02 06:51:19;;;;;;;71.70;29.13;;;;;;;;;;5061845;28;20024;-76
2022/12/02 06:53:45;;;;;;;66.90;26.50;;;;;;;;;;5064130;28;20041;-76
2022/12/02 06:56:20;;;;;;;75.83;30.07;;;;;;;;;;5050427;28;20123;-76
2022/12/02 06:58:57;;;;;;;69.70;28.10;;;;;;;;;;5062594;28;20029;-75
2022/12/02 07:01:26;;;;;;;67.77;26.73;;;;;;;;;;5048786;28;20040;-76
2022/12/02 07:04:01;;;;;;;62.37;26.63;;;;;;;;;;5049782;28;20116;-75
2022/12/02 07:06:29;;;;;;;69.07;27.33;;;;;;;;;;5048689;28;20048;-75
2022/12/02 07:09:18;;;;;;;73.77;27.87;;;;;;;;;;5050589;28;20081;-76
2022/12/02 07:11:49;;;;;;;73.50;28.63;;;;;;;;;;5039902;28;20086;-76
2022/12/02 07:14:21;;;;;;;71.70;27.33;;;;;;;;;;5050585;28;20044;-76
2022/12/02 07:16:48;;;;;;;69.20;26.55;;;;;;;;;;5058816;28;20021;-77
2022/12/02 07:19:20;;;;;;;63.23;27.93;;;;;;;;;;5058743;28;20387;-77
2022/12/02 07:21:46;;;;;;;65.60;28.37;;;;;;;;;;5058486;28;20381;-76
2022/12/02 07:24:14;;;;;;;76.30;28.53;;;;;;;;;;5058340;28;21830;-76
2022/12/02 07:26:44;;;;;;;66.33;27.63;;;;;;;;;;5056116;28;20083;-76
2022/12/02 07:29:13;;;;;;;66.20;26.70;;;;;;;;;;5055482;28;20043;-76
2022/12/02 07:31:43;;;;;;;69.23;29.27;;;;;;;;;;5055642;28;20024;-74
2022/12/02 07:34:11;;;;;;;72.03;28.63;;;;;;;;;;5055601;28;20037;-75
2022/12/02 07:36:37;;;;;;;69.47;27.20;;;;;;;;;;5055532;28;20074;-77
2022/12/02 07:39:03;;;;;;;71.67;28.60;;;;;;;;;;5058360;28;20021;-75
2022/12/02 07:41:30;;;;;;;78.50;28.40;;;;;;;;;;5063485;28;20029;-76
2022/12/02 07:43:56;;;;;;;74.73;28.90;;;;;;;;;;5054855;28;20025;-76
2022/12/02 07:46:22;;;;;;;84.37;30.70;;;;;;;;;;5059415;28;20033;-76
2022/12/02 07:48:48;;;;;;;78.60;29.87;;;;;;;;;;5046134;28;20480;-76
2022/12/02 07:51:14;;;;;;;82.97;30.53;;;;;;;;;;5056925;28;20028;-76
2022/12/02 07:53:40;;;;;;;83.73;32.13;;;;;;;;;;5055883;28;20028;-76
2022/12/02 07:56:11;;;;;;;88.90;32.57;;;;;;;;;;5040690;28;20136;-76
2022/12/02 07:58:37;;;;;;;94.97;32.10;;;;;;;;;;5061105;28;20457;-77
2022/12/02 08:01:03;;;;;;;107.30;35.67;;;;;;;;;;5055705;28;20035;-76
2022/12/02 08:03:32;;;;;;;94.17;33.87;;;;;;;;;;5059390;28;20456;-77
2022/12/02 08:05:58;;;;;;;86.10;30.57;;;;;;;;;;5068538;28;20029;-76
2022/12/02 08:08:26;;;;;;;90.43;32.77;;;;;;;;;;5064999;28;20108;-76
2022/12/02 08:10:52;;;;;;;92.43;32.67;;;;;;;;;;5055441;28;20029;-76
2022/12/02 08:13:18;;;;;;;105.63;36.23;;;;;;;;;;5057505;28;20064;-76
2022/12/02 08:15:46;;;;;;;99.60;34.93;;;;;;;;;;5064386;28;20032;-76
2022/12/02 08:18:12;;;;;;;119.20;37.63;;;;;;;;;;5071125;28;20020;-76
2022/12/02 08:20:41;;;;;;;104.40;36.17;;;;;;;;;;5062722;28;20028;-77
2022/12/02 08:23:50;;;;;;;103.37;34.10;;;;;;;;;;5057296;28;20032;-76
2022/12/02 08:26:16;;;;;;;103.70;34.03;;;;;;;;;;5054936;28;20041;-76
2022/12/02 08:28:59;;;;;;;112.87;37.00;;;;;;;;;;5054956;28;20029;-77
2022/12/02 08:40:37;;;;;;;111.80;35.03;;;;;;;;;;5017799;28;19905;-76
2022/12/02 08:46:27;;;;;;;114.63;35.93;;;;;;;;;;5009925;28;20052;-77
2022/12/02 09:04:16;;;;;;;126.73;34.13;;;;;;;;;;5010323;28;20424;-76
2022/12/02 09:18:42;;;;;;;107.37;34.00;;;;;;;;;;5014464;28;19911;-76
2022/12/02 09:21:08;;;;;;;96.47;32.93;;;;;;;;;;5013562;28;20029;-77
2022/12/02 09:23:37;;;;;;;101.37;34.87;;;;;;;;;;4997187;28;20026;-77
2022/12/02 09:26:03;;;;;;;81.47;30.30;;;;;;;;;;4996477;28;20128;-76
2022/12/02 09:28:29;;;;;;;96.10;32.07;;;;;;;;;;5010977;28;20033;-77
2022/12/02 09:30:55;;;;;;;94.83;31.97;;;;;;;;;;4998568;28;20026;-77
2022/12/02 09:33:21;;;;;;;99.27;35.23;;;;;;;;;;4999712;28;20045;-77
2022/12/02 09:35:50;;;;;;;98.10;33.90;;;;;;;;;;5003898;28;20034;-77
2022/12/02 09:38:16;;;;;;;91.33;32.53;;;;;;;;;;5023728;28;20026;-77
2022/12/02 09:40:42;;;;;;;89.17;33.07;;;;;;;;;;5017201;28;20038;-77
2022/12/02 09:43:10;;;;;;;96.10;34.03;;;;;;;;;;5023154;28;20022;-77
2022/12/02 09:45:36;;;;;;;107.23;33.60;;;;;;;;;;5031925;28;20025;-77
2022/12/02 09:48:03;;;;;;;104.40;31.90;;;;;;;;;;5072285;28;20403;-77
2022/12/02 09:50:29;;;;;;;86.20;31.50;;;;;;;;;;5069299;28;20060;-77
2022/12/02 09:52:59;;;;;;;91.67;30.80;;;;;;;;;;5061300;28;20032;-77
2022/12/02 09:55:25;;;;;;;99.17;33.23;;;;;;;;;;5058614;28;20067;-76
2022/12/02 09:57:53;;;;;;;100.83;34.97;;;;;;;;;;5057674;28;20033;-77
2022/12/02 10:00:20;;;;;;;95.90;31.70;;;;;;;;;;5058024;28;20025;-77
2022/12/02 10:02:50;;;;;;;94.57;33.60;;;;;;;;;;5072102;28;20036;-76
2022/12/02 10:05:16;;;;;;;107.80;36.20;;;;;;;;;;5059061;28;20085;-76
2022/12/02 10:07:43;;;;;;;105.97;35.60;;;;;;;;;;5057732;28;20033;-77
2022/12/02 10:10:13;;;;;;;97.37;33.30;;;;;;;;;;5057261;28;20033;-77
2022/12/02 10:12:39;;;;;;;98.23;32.47;;;;;;;;;;5057263;28;20374;-77
2022/12/02 10:15:06;;;;;;;94.57;33.33;;;;;;;;;;5057652;28;20040;-77
2022/12/02 10:17:32;;;;;;;96.33;32.33;;;;;;;;;;5058001;28;20036;-77
2022/12/02 10:19:58;;;;;;;95.33;32.77;;;;;;;;;;5071485;28;20319;-77
2022/12/02 10:22:24;;;;;;;84.97;31.80;;;;;;;;;;5058025;28;20029;-77
2022/12/02 10:24:50;;;;;;;89.63;32.40;;;;;;;;;;5057792;28;20025;-77
2022/12/02 10:27:27;;;;;;;88.90;33.33;;;;;;;;;;5074190;28;20028;-77
2022/12/02 10:29:53;;;;;;;99.00;34.57;;;;;;;;;;5070749;28;20036;-76
2022/12/02 10:32:24;;;;;;;90.83;33.27;;;;;;;;;;5049154;28;20031;-76
2022/12/02 10:35:08;;;;;;;82.77;31.70;;;;;;;;;;5064536;28;20087;-76
2022/12/02 10:37:34;;;;;;;94.73;34.10;;;;;;;;;;5062904;28;20110;-76
2022/12/02 10:40:14;;;;;;;90.27;33.47;;;;;;;;;;5057586;28;20150;-76
2022/12/02 10:42:41;;;;;;;70.70;30.00;;;;;;;;;;5060660;28;20460;-76
2022/12/02 10:45:09;;;;;;;72.97;29.87;;;;;;;;;;5056488;28;20029;-76
2022/12/02 10:47:35;;;;;;;91.67;31.63;;;;;;;;;;5056693;28;20033;-76
2022/12/02 10:50:01;;;;;;;73.50;28.13;;;;;;;;;;5064226;28;20039;-76
2022/12/02 10:52:27;;;;;;;74.57;32.10;;;;;;;;;;5057445;28;20445;-77
2022/12/02 10:54:54;;;;;;;70.63;29.23;;;;;;;;;;5056906;28;20033;-76
2022/12/02 10:57:24;;;;;;;70.07;28.33;;;;;;;;;;5056277;28;20043;-76
2022/12/02 10:59:53;;;;;;;71.60;30.70;;;;;;;;;;5057741;28;20503;-76
2022/12/02 11:02:24;;;;;;;79.80;31.37;;;;;;;;;;5056954;28;20079;-76
2022/12/02 11:04:50;;;;;;;71.93;30.47;;;;;;;;;;5057363;28;20029;-76
2022/12/02 11:07:16;;;;;;;77.90;30.63;;;;;;;;;;5056270;28;20037;-76
2022/12/02 11:09:49;;;;;;;78.20;32.47;;;;;;;;;;5056262;28;20043;-76
2022/12/02 11:12:30;;;;;;;66.97;27.73;;;;;;;;;;5055842;28;20025;-76
2022/12/02 11:14:59;;;;;;;54.00;21.50;;;;;;;;;;5052186;28;20102;-76
2022/12/02 11:17:51;;;;;;;65.00;28.43;;;;;;;;;;5053086;28;20029;-76
2022/12/02 11:20:38;;;;;;;70.47;30.05;;;;;;;;;;5045381;28;20029;-76
2022/12/02 11:23:24;;;;;;;69.70;30.23;;;;;;;;;;5063459;28;20076;-76
2022/12/02 11:25:50;;;;;;;71.87;30.93;;;;;;;;;;5050777;28;20024;-75
2022/12/02 11:28:28;;;;;;;75.57;29.73;;;;;;;;;;5063825;28;20090;-76
2022/12/02 11:31:15;;;;;;;62.97;28.67;;;;;;;;;;5051064;28;20366;-76
2022/12/02 11:34:00;;;;;;;68.17;29.57;;;;;;;;;;5051205;28;21725;-76
2022/12/02 11:36:26;;;;;;;57.40;26.90;;;;;;;;;;5049967;28;20046;-76
2022/12/02 11:38:52;;;;;;;60.80;24.53;;;;;;;;;;5047948;28;20036;-75
2022/12/02 11:41:23;;;;;;;64.17;28.30;;;;;;;;;;5050066;28;20025;-76
2022/12/02 11:43:49;;;;;;;76.80;31.90;;;;;;;;;;5066185;28;20496;-76
2022/12/02 11:46:16;;;;;;;69.07;31.90;;;;;;;;;;5048356;28;20060;-76
2022/12/02 11:48:50;;;;;;;63.53;28.20;;;;;;;;;;5061382;28;20040;-76
2022/12/02 11:51:28;;;;;;;59.13;28.70;;;;;;;;;;5051727;28;20037;-76
2022/12/02 11:53:55;;;;;;;55.87;27.90;;;;;;;;;;5049724;28;20079;-76
2022/12/02 11:56:22;;;;;;;61.53;28.13;;;;;;;;;;5050574;28;20036;-76
2022/12/02 11:58:48;;;;;;;58.30;26.07;;;;;;;;;;5051162;28;20029;-76
2022/12/02 12:01:14;;;;;;;63.00;29.07;;;;;;;;;;5052178;28;20433;-76
2022/12/02 12:03:41;;;;;;;54.93;26.07;;;;;;;;;;5065530;28;20040;-76
2022/12/02 12:06:09;;;;;;;59.40;28.47;;;;;;;;;;5047976;28;20420;-76
2022/12/02 12:08:36;;;;;;;60.47;28.13;;;;;;;;;;5061249;28;20051;-76
2022/12/02 12:11:15;;;;;;;57.30;27.53;;;;;;;;;;5051037;28;20094;-76
2022/12/02 12:13:59;;;;;;;62.07;27.03;;;;;;;;;;5066271;28;20029;-76
2022/12/02 12:16:26;;;;;;;50.83;25.67;;;;;;;;;;5063827;28;20029;-76
2022/12/02 12:18:52;;;;;;;56.87;26.50;;;;;;;;;;5064720;28;20024;-76
2022/12/02 12:21:30;;;;;;;53.03;26.00;;;;;;;;;;5049034;28;20115;-76
2022/12/02 12:26:42;;;;;;;51.40;23.83;;;;;;;;;;5050198;28;20056;-75
2022/12/02 12:29:08;;;;;;;48.87;25.43;;;;;;;;;;5050732;28;20387;-76
2022/12/02 12:31:34;;;;;;;47.77;25.53;;;;;;;;;;5065519;28;20037;-76
2022/12/02 12:34:01;;;;;;;45.40;23.97;;;;;;;;;;5062590;28;20496;-76
2022/12/02 12:36:27;;;;;;;45.77;24.33;;;;;;;;;;5048561;28;20028;-76
2022/12/02 12:38:53;;;;;;;50.93;25.47;;;;;;;;;;5049145;28;20029;-76
2022/12/02 12:41:19;;;;;;;45.90;25.33;;;;;;;;;;5047103;28;20054;-76
2022/12/02 12:43:45;;;;;;;46.03;25.80;;;;;;;;;;5065317;28;20027;-75
2022/12/02 12:46:11;;;;;;;44.23;25.47;;;;;;;;;;5051246;28;20130;-76
2022/12/02 12:48:37;;;;;;;44.03;24.07;;;;;;;;;;5049993;28;20033;-76
2022/12/02 12:51:03;;;;;;;46.17;24.70;;;;;;;;;;5062114;28;20115;-76
2022/12/02 12:53:29;;;;;;;45.93;25.03;;;;;;;;;;5047376;28;20025;-77
2022/12/02 12:55:55;;;;;;;40.83;23.17;;;;;;;;;;5047232;28;20040;-75
2022/12/02 12:58:22;;;;;;;46.40;24.03;;;;;;;;;;5051529;28;20060;-76
2022/12/02 13:00:48;;;;;;;39.33;20.73;;;;;;;;;;5045558;28;20025;-74
2022/12/02 13:03:14;;;;;;;41.77;22.60;;;;;;;;;;5061609;28;20120;-76
2022/12/02 13:05:40;;;;;;;38.57;21.93;;;;;;;;;;5062755;28;20032;-76
2022/12/02 13:08:06;;;;;;;42.23;24.03;;;;;;;;;;5047616;28;20419;-76
2022/12/02 13:10:32;;;;;;;43.20;23.00;;;;;;;;;;5047330;28;20115;-76
2022/12/02 13:13:01;;;;;;;46.50;24.73;;;;;;;;;;5046087;28;20473;-76
2022/12/02 13:15:27;;;;;;;39.70;22.60;;;;;;;;;;5065223;28;21752;-76
2022/12/02 13:17:55;;;;;;;42.70;22.60;;;;;;;;;;5055028;28;20320;-76
2022/12/02 13:20:21;;;;;;;41.40;22.87;;;;;;;;;;5054906;28;20049;-76
2022/12/02 13:22:47;;;;;;;37.60;22.37;;;;;;;;;;5057030;28;20025;-76
2022/12/02 13:25:14;;;;;;;39.17;21.97;;;;;;;;;;5056224;28;20045;-76
2022/12/02 13:27:40;;;;;;;36.30;20.83;;;;;;;;;;5055310;28;20025;-75
2022/12/02 13:30:07;;;;;;;42.67;23.83;;;;;;;;;;5055826;28;20442;-76
2022/12/02 13:32:33;;;;;;;38.97;22.50;;;;;;;;;;5069624;28;20122;-76
2022/12/02 13:34:59;;;;;;;43.40;23.27;;;;;;;;;;5045857;28;20068;-76
2022/12/02 13:37:25;;;;;;;42.13;22.80;;;;;;;;;;5054595;28;20025;-76
2022/12/02 13:39:54;;;;;;;43.43;22.53;;;;;;;;;;5054076;28;20040;-75
2022/12/02 13:42:20;;;;;;;41.77;22.77;;;;;;;;;;5060099;28;20025;-75
2022/12/02 13:44:46;;;;;;;38.47;21.90;;;;;;;;;;5053524;28;20416;-76
2022/12/02 13:47:12;;;;;;;42.80;24.13;;;;;;;;;;5054658;28;20025;-76
2022/12/02 13:49:38;;;;;;;38.40;21.70;;;;;;;;;;5059071;28;20059;-76
2022/12/02 13:52:04;;;;;;;40.37;22.27;;;;;;;;;;5062765;28;20029;-76
2022/12/02 13:54:30;;;;;;;43.07;23.20;;;;;;;;;;5054713;28;20029;-76
2022/12/02 13:56:56;;;;;;;29.03;15.93;;;;;;;;;;5046755;28;20175;-76
2022/12/02 13:59:22;;;;;;;36.10;21.10;;;;;;;;;;5051063;28;20064;-76
2022/12/02 14:01:48;;;;;;;40.17;23.93;;;;;;;;;;5054187;28;20025;-76
2022/12/02 14:04:16;;;;;;;43.70;22.90;;;;;;;;;;5041086;28;20453;-74
2022/12/02 14:06:42;;;;;;;42.63;24.50;;;;;;;;;;5050686;28;20040;-76
2022/12/02 14:09:08;;;;;;;42.93;23.47;;;;;;;;;;5061641;28;20115;-77
2022/12/02 14:11:34;;;;;;;43.77;22.57;;;;;;;;;;5053232;28;20067;-76
2022/12/02 14:14:00;;;;;;;45.40;26.87;;;;;;;;;;5053772;28;20029;-77
2022/12/02 14:16:26;;;;;;;42.97;23.70;;;;;;;;;;5054133;28;20029;-75
2022/12/02 14:18:53;;;;;;;42.77;22.70;;;;;;;;;;5047357;28;20101;-77
2022/12/02 14:21:19;;;;;;;44.53;24.00;;;;;;;;;;5048694;28;20025;-76
2022/12/02 14:23:47;;;;;;;40.00;21.80;;;;;;;;;;5055642;28;20033;-76
2022/12/02 14:26:15;;;;;;;46.30;22.73;;;;;;;;;;5058075;28;20108;-76
2022/12/02 14:28:41;;;;;;;38.23;21.37;;;;;;;;;;5057302;28;20029;-76
2022/12/02 14:31:07;;;;;;;39.27;21.63;;;;;;;;;;5057053;28;20394;-75
2022/12/02 14:33:33;;;;;;;40.13;22.27;;;;;;;;;;5057391;28;20032;-76
2022/12/02 14:35:59;;;;;;;39.03;22.57;;;;;;;;;;5056977;28;20061;-76
2022/12/02 14:38:26;;;;;;;40.80;20.47;;;;;;;;;;5057561;28;20029;-77
2022/12/02 14:40:54;;;;;;;38.90;20.00;;;;;;;;;;5056541;28;20461;-76
2022/12/02 14:43:21;;;;;;;41.00;21.70;;;;;;;;;;5049755;28;20112;-76
2022/12/02 14:45:47;;;;;;;40.17;20.43;;;;;;;;;;5066765;28;20071;-76
2022/12/02 14:48:13;;;;;;;42.17;21.53;;;;;;;;;;5065744;28;20444;-77
2022/12/02 14:50:39;;;;;;;39.70;21.67;;;;;;;;;;5064279;28;20025;-76
2022/12/02 14:53:05;;;;;;;33.73;17.27;;;;;;;;;;5056495;28;20025;-77
2022/12/02 14:55:31;;;;;;;38.20;17.60;;;;;;;;;;5073492;28;20024;-77
2022/12/02 14:57:57;;;;;;;29.73;14.43;;;;;;;;;;5071121;28;20112;-78
2022/12/02 15:00:24;;;;;;;38.63;21.23;;;;;;;;;;5056518;28;20032;-77
2022/12/02 15:02:50;;;;;;;42.67;22.73;;;;;;;;;;5056344;28;20040;-78
2022/12/02 15:05:21;;;;;;;38.73;21.33;;;;;;;;;;5057535;28;20021;-77